PWSweather.com
Personal Weather Stations
Station Observations
TARRYHILL
Tarrytown, NY 10591

Tarrytown, NY 10591

Lat: 41.05185, Lon: -73.85296

Elevation: 341

Station Type: Davis Vantage Vue

www.tarrytownnyweather.com

High Low Average
Temperature 46.0°F7.8°F 21.8°F-5.7°F 32.2°F0.1°F
Dew Point 25.3°F-3.7°F -0.8°F-18.2°F 10.2°F-12.1°F
Winds 10.4 mph NNW16.7 mph NNW Calm Calm 4.5 mph 7.2 mph
Wind Gusts 20.7 mph33.3 mph -- 9.0 mph14.5 mph
Humidity 58% 27% 40%
Pressure 30.44 in1030.80 in 29.88 in1011.90 in -
Precipitation 0.00 in0.00 in - -
Hour Temp Dew Point Humidity Winds Wind Gusts Pressure Precip Precip Rate Daily Precip Total
12:00 AM 46.0°F7.8°C 19.8°F-6.8°C 35% Calm Calm 1.2 mph1.9 kmh 29.88 in1011.9 mb - 0.00 in0.0 mm 0.00 in0.0 mm
01:00 AM 41.3°F5.2°C 21.5°F-5.8°C 45% Calm Calm -- 29.88 in1011.9 mb - 0.00 in0.0 mm 0.00 in0.0 mm
03:00 AM 42.7°F5.9°C 23.3°F-4.8°C 46% 1.2 mph NNW1.9 kmh NNW 2.3 mph3.7 kmh 29.88 in1011.9 mb - 0.00 in0.0 mm 0.00 in0.0 mm
04:00 AM 41.2°F5.1°C 25.3°F-3.7°C 53% 1.2 mph SW1.9 kmh SW 3.5 mph5.6 kmh 29.89 in1012.2 mb - 0.00 in0.0 mm 0.00 in0.0 mm
05:00 AM 38.7°F3.7°C 24.4°F-4.2°C 56% 4.6 mph NE7.4 kmh NE 4.6 mph7.4 kmh 29.92 in1013.2 mb - 0.00 in0.0 mm 0.00 in0.0 mm
06:00 AM 36.5°F2.5°C 21.8°F-5.7°C 55% 3.5 mph ESE5.6 kmh ESE 11.5 mph18.5 kmh 29.94 in1013.9 mb - 0.00 in0.0 mm 0.00 in0.0 mm
07:00 AM 35.3°F1.8°C 22.0°F-5.6°C 58% 1.2 mph E1.9 kmh E 3.5 mph5.6 kmh 29.97 in1014.9 mb - 0.00 in0.0 mm 0.00 in0.0 mm
08:00 AM 34.0°F1.1°C 19.9°F-6.7°C 56% 9.2 mph NNE14.8 kmh NNE 13.8 mph22.2 kmh 30.00 in1015.9 mb - 0.00 in0.0 mm 0.00 in0.0 mm
09:00 AM 33.0°F0.6°C 19.0°F-7.2°C 56% 1.2 mph N1.9 kmh N 9.2 mph14.8 kmh 30.04 in1017.3 mb - 0.00 in0.0 mm 0.00 in0.0 mm
10:00 AM 31.9°F-0.1°C 12.0°F-11.1°C 43% 6.9 mph NW11.1 kmh NW 12.7 mph20.4 kmh 30.09 in1019.0 mb - 0.00 in0.0 mm 0.00 in0.0 mm
11:00 AM 31.3°F-0.4°C 10.8°F-11.8°C 42% 3.5 mph N5.6 kmh N 10.4 mph16.7 kmh 30.13 in1020.3 mb - 0.00 in0.0 mm 0.00 in0.0 mm
12:00 PM 30.8°F-0.7°C 6.3°F-14.3°C 35% 8.1 mph NNW13.0 kmh NNW 10.4 mph16.7 kmh 30.17 in1021.7 mb - 0.00 in0.0 mm 0.00 in0.0 mm
01:00 PM 29.4°F-1.4°C 1.0°F-17.2°C 29% 5.8 mph NNW9.3 kmh NNW 13.8 mph22.2 kmh 30.19 in1022.4 mb - 0.00 in0.0 mm 0.00 in0.0 mm
02:00 PM 29.8°F-1.2°C 1.4°F-17.0°C 29% 5.8 mph NE9.3 kmh NE 13.8 mph22.2 kmh 30.19 in1022.4 mb - 0.00 in0.0 mm 0.00 in0.0 mm
03:00 PM 30.2°F-1.0°C 1.7°F-16.8°C 29% 8.1 mph N13.0 kmh N 13.8 mph22.2 kmh 30.19 in1022.4 mb - 0.00 in0.0 mm 0.00 in0.0 mm
04:00 PM 30.3°F-0.9°C 0.3°F-17.6°C 27% 10.4 mph NNW16.7 kmh NNW 20.7 mph33.3 kmh 30.22 in1023.4 mb - 0.00 in0.0 mm 0.00 in0.0 mm
05:00 PM 29.9°F-1.2°C -0.1°F-17.8°C 27% 5.8 mph NW9.3 kmh NW 11.5 mph18.5 kmh 30.25 in1024.4 mb - 0.00 in0.0 mm 0.00 in0.0 mm
06:00 PM 28.9°F-1.7°C 0.6°F-17.4°C 29% 4.6 mph N7.4 kmh N 10.4 mph16.7 kmh 30.27 in1025.1 mb - 0.00 in0.0 mm 0.00 in0.0 mm
07:00 PM 27.3°F-2.6°C 2.6°F-16.3°C 34% 4.6 mph NW7.4 kmh NW 8.1 mph13.0 kmh 30.32 in1026.8 mb - 0.00 in0.0 mm 0.00 in0.0 mm
08:00 PM 25.0°F-3.9°C -0.8°F-18.2°C 32% 8.1 mph NNW13.0 kmh NNW 12.7 mph20.4 kmh 30.36 in1028.1 mb - 0.00 in0.0 mm 0.00 in0.0 mm
09:00 PM 23.7°F-4.6°C 0.0°F-17.8°C 35% 4.6 mph NE7.4 kmh NE 6.9 mph11.1 kmh 30.39 in1029.1 mb - 0.00 in0.0 mm 0.00 in0.0 mm
10:00 PM 22.5°F-5.3°C 0.1°F-17.7°C 37% 3.5 mph E5.6 kmh E 6.9 mph11.1 kmh 30.42 in1030.1 mb - 0.00 in0.0 mm 0.00 in0.0 mm
11:00 PM 21.8°F-5.7°C 1.7°F-16.8°C 41% 1.2 mph NE1.9 kmh NE 5.8 mph9.3 kmh 30.44 in1030.8 mb - 0.00 in0.0 mm 0.00 in0.0 mm